Time,TemperatureF,DewpointF,PressureIn,WindDirection,WindDirectionDegrees,WindSpeedMPH,WindSpeedGustMPH,Humidity,HourlyPrecipIn,Conditions,Clouds,dailyrainin,SolarRadiationWatts/m^2,SoftwareType,DateUTC
2013-08-06 00:02:00,74.0,72.0,-100.00,NE,53,0.0,3.0,93,0.00,,,1.04,0.000000,,2013-08-06 05:02:00,
2013-08-06 00:11:00,74.0,72.0,-100.00,NE,53,0.0,3.0,93,0.00,,,1.04,0.000000,,2013-08-06 05:11:00,
2013-08-06 00:22:00,74.0,72.0,-100.00,NE,53,0.0,3.0,93,0.00,,,1.04,0.000000,,2013-08-06 05:22:00,
2013-08-06 00:53:00,74.0,72.0,-100.00,NNW,327,0.0,0.0,93,0.00,,,1.04,0.000000,,2013-08-06 05:53:00,
2013-08-06 01:02:00,74.0,72.0,-100.00,NNW,327,0.0,0.0,93,0.00,,,1.04,0.000000,,2013-08-06 06:02:00,
2013-08-06 01:11:00,74.0,72.0,-100.00,NNW,327,0.0,0.0,93,0.00,,,1.04,0.000000,,2013-08-06 06:11:00,
2013-08-06 01:22:00,74.0,72.0,-100.00,NNW,327,0.0,0.0,93,0.00,,,1.04,0.000000,,2013-08-06 06:22:00,
2013-08-06 01:52:00,73.0,71.0,-100.00,WSW,255,0.0,2.0,93,0.00,,,1.04,2.000000,,2013-08-06 06:52:00,
2013-08-06 02:01:00,73.0,71.0,-100.00,WSW,255,0.0,2.0,93,0.00,,,1.04,2.000000,,2013-08-06 07:01:00,
2013-08-06 02:12:00,73.0,71.0,-100.00,WSW,255,0.0,2.0,93,0.00,,,1.04,2.000000,,2013-08-06 07:12:00,
2013-08-06 02:22:00,73.0,71.0,-100.00,WSW,255,0.0,2.0,93,0.00,,,1.04,2.000000,,2013-08-06 07:22:00,
2013-08-06 02:53:00,73.0,71.0,-100.00,NE,46,0.0,2.0,94,0.00,,,1.04,2.000000,,2013-08-06 07:53:00,
2013-08-06 03:02:00,73.0,71.0,-100.00,NE,46,0.0,2.0,94,0.00,,,1.04,2.000000,,2013-08-06 08:02:00,
2013-08-06 03:11:00,73.0,71.0,-100.00,NE,46,0.0,2.0,94,0.00,,,1.04,2.000000,,2013-08-06 08:11:00,
2013-08-06 03:22:00,73.0,71.0,-100.00,NE,46,0.0,2.0,94,0.00,,,1.04,2.000000,,2013-08-06 08:22:00,
2013-08-06 03:52:00,73.0,71.0,-100.00,North,8,0.0,2.0,94,0.00,,,1.04,5.000000,,2013-08-06 08:52:00,
2013-08-06 04:01:00,73.0,71.0,-100.00,North,8,0.0,2.0,94,0.00,,,1.04,5.000000,,2013-08-06 09:01:00,
2013-08-06 04:11:00,73.0,71.0,-100.00,North,8,0.0,2.0,94,0.00,,,1.04,5.000000,,2013-08-06 09:11:00,
2013-08-06 04:22:00,73.0,71.0,-100.00,North,8,0.0,2.0,94,0.00,,,1.04,5.000000,,2013-08-06 09:22:00,
2013-08-06 04:52:00,73.0,71.0,-100.00,East,98,0.0,2.0,94,0.00,,,1.04,5.000000,,2013-08-06 09:52:00,
2013-08-06 05:01:00,73.0,71.0,-100.00,East,98,0.0,2.0,94,0.00,,,1.04,5.000000,,2013-08-06 10:01:00,
2013-08-06 05:12:00,73.0,71.0,-100.00,East,98,0.0,2.0,94,0.00,,,1.04,5.000000,,2013-08-06 10:12:00,
2013-08-06 05:22:00,73.0,71.0,-100.00,East,98,0.0,2.0,94,0.00,,,1.04,5.000000,,2013-08-06 10:22:00,
2013-08-06 05:53:00,72.0,70.0,-100.00,SSW,195,0.0,0.0,94,0.00,,,1.04,5.000000,,2013-08-06 10:53:00,
2013-08-06 06:02:00,72.0,70.0,-100.00,SSW,195,0.0,0.0,94,0.00,,,1.04,5.000000,,2013-08-06 11:02:00,
2013-08-06 06:11:00,72.0,70.0,-100.00,SSW,195,0.0,0.0,94,0.00,,,1.04,5.000000,,2013-08-06 11:11:00,
2013-08-06 06:22:00,72.0,70.0,-100.00,SSW,195,0.0,0.0,94,0.00,,,1.04,5.000000,,2013-08-06 11:22:00,
2013-08-06 06:53:00,73.0,71.0,-100.00,NNW,344,1.0,3.0,94,0.00,,,1.04,5.000000,,2013-08-06 11:53:00,
2013-08-06 07:02:00,73.0,71.0,-100.00,NNW,344,1.0,3.0,94,0.00,,,1.04,5.000000,,2013-08-06 12:02:00,
2013-08-06 07:11:00,73.0,71.0,-100.00,NNW,344,1.0,3.0,94,0.00,,,1.04,5.000000,,2013-08-06 12:11:00,
2013-08-06 07:22:00,73.0,71.0,-100.00,NNW,344,1.0,3.0,94,0.00,,,1.04,5.000000,,2013-08-06 12:22:00,
2013-08-06 07:52:00,76.0,74.0,-100.00,WSW,258,0.0,2.0,94,0.00,,,1.04,66.000000,,2013-08-06 12:52:00,
2013-08-06 08:02:00,76.0,74.0,-100.00,WSW,258,0.0,2.0,94,0.00,,,1.04,66.000000,,2013-08-06 13:02:00,
2013-08-06 08:11:00,76.0,74.0,-100.00,WSW,258,0.0,2.0,94,0.00,,,1.04,66.000000,,2013-08-06 13:11:00,
2013-08-06 08:22:00,76.0,74.0,-100.00,WSW,258,0.0,2.0,94,0.00,,,1.04,66.000000,,2013-08-06 13:22:00,
2013-08-06 08:53:00,80.0,76.0,-100.00,WNW,299,3.0,6.0,87,0.00,,,1.04,212.000000,,2013-08-06 13:53:00,
2013-08-06 09:01:00,80.0,76.0,-100.00,WNW,299,3.0,6.0,87,0.00,,,1.04,212.000000,,2013-08-06 14:01:00,
2013-08-06 09:11:00,80.0,76.0,-100.00,WNW,299,3.0,6.0,87,0.00,,,1.04,212.000000,,2013-08-06 14:11:00,
2013-08-06 09:22:00,80.0,76.0,-100.00,WNW,299,3.0,6.0,87,0.00,,,1.04,212.000000,,2013-08-06 14:22:00,
2013-08-06 09:53:00,85.0,75.0,-100.00,NNW,334,4.0,10.0,72,0.00,,,1.04,470.000000,,2013-08-06 14:53:00,
2013-08-06 10:02:00,85.0,75.0,-100.00,NNW,334,4.0,10.0,72,0.00,,,1.04,470.000000,,2013-08-06 15:02:00,
2013-08-06 10:11:00,85.0,75.0,-100.00,NNW,334,4.0,10.0,72,0.00,,,1.04,470.000000,,2013-08-06 15:11:00,
2013-08-06 10:22:00,85.0,75.0,-100.00,NNW,334,4.0,10.0,72,0.00,,,1.04,470.000000,,2013-08-06 15:22:00,
2013-08-06 10:52:00,88.0,75.0,-100.00,NW,324,5.0,10.0,65,0.00,,,1.04,658.000000,,2013-08-06 15:52:00,
2013-08-06 11:02:00,88.0,75.0,-100.00,NW,324,5.0,10.0,65,0.00,,,1.04,658.000000,,2013-08-06 16:02:00,
2013-08-06 11:11:00,88.0,75.0,-100.00,NW,324,5.0,10.0,65,0.00,,,1.04,658.000000,,2013-08-06 16:11:00,
2013-08-06 11:22:00,88.0,75.0,-100.00,NW,324,5.0,10.0,65,0.00,,,1.04,658.000000,,2013-08-06 16:22:00,
2013-08-06 11:52:00,90.0,75.0,-100.00,North,6,4.0,9.0,61,0.00,,,-99.99,823.000000,,2013-08-06 16:52:00,
2013-08-06 12:02:00,90.0,75.0,-100.00,North,6,4.0,9.0,61,0.00,,,-99.99,823.000000,,2013-08-06 17:02:00,
2013-08-06 12:11:00,90.0,75.0,-100.00,North,6,4.0,9.0,61,0.00,,,-99.99,823.000000,,2013-08-06 17:11:00,
2013-08-06 12:21:00,90.0,75.0,-100.00,North,6,4.0,9.0,61,0.00,,,-99.99,823.000000,,2013-08-06 17:21:00,
2013-08-06 12:52:00,92.0,75.0,-100.00,NW,325,4.0,9.0,57,0.00,,,1.04,926.000000,,2013-08-06 17:52:00,
2013-08-06 13:01:00,92.0,75.0,-100.00,NW,325,4.0,9.0,57,0.00,,,1.04,926.000000,,2013-08-06 18:01:00,
2013-08-06 13:11:00,92.0,75.0,-100.00,NW,325,4.0,9.0,57,0.00,,,1.04,926.000000,,2013-08-06 18:11:00,
2013-08-06 13:22:00,92.0,75.0,-100.00,NW,325,4.0,9.0,57,0.00,,,1.04,926.000000,,2013-08-06 18:22:00,
2013-08-06 13:52:00,93.0,74.0,-100.00,NNW,335,2.0,9.0,55,0.00,,,1.04,815.000000,,2013-08-06 18:52:00,
2013-08-06 14:01:00,93.0,74.0,-100.00,NNW,335,2.0,9.0,55,0.00,,,1.04,815.000000,,2013-08-06 19:01:00,
2013-08-06 14:11:00,93.0,74.0,-100.00,NNW,335,2.0,9.0,55,0.00,,,1.04,815.000000,,2013-08-06 19:11:00,
2013-08-06 14:21:00,93.0,74.0,-100.00,NNW,335,2.0,9.0,55,0.00,,,1.04,815.000000,,2013-08-06 19:21:00,
2013-08-06 14:52:00,91.0,76.0,-100.00,South,179,5.0,10.0,61,0.00,,,1.04,644.000000,,2013-08-06 19:52:00,
2013-08-06 15:01:00,91.0,76.0,-100.00,South,179,5.0,10.0,61,0.00,,,1.04,644.000000,,2013-08-06 20:01:00,
2013-08-06 15:11:00,91.0,76.0,-100.00,South,179,5.0,10.0,61,0.00,,,1.04,644.000000,,2013-08-06 20:11:00,
2013-08-06 15:22:00,91.0,76.0,-100.00,South,179,5.0,10.0,61,0.00,,,1.04,644.000000,,2013-08-06 20:22:00,
2013-08-06 15:52:00,94.0,77.0,-100.00,SSW,202,4.0,10.0,58,0.00,,,1.04,716.000000,,2013-08-06 20:52:00,
2013-08-06 16:01:00,94.0,77.0,-100.00,SSW,202,4.0,10.0,58,0.00,,,1.04,716.000000,,2013-08-06 21:01:00,
2013-08-06 16:11:00,94.0,77.0,-100.00,SSW,202,4.0,10.0,58,0.00,,,1.04,716.000000,,2013-08-06 21:11:00,
2013-08-06 16:22:00,94.0,77.0,-100.00,SSW,202,4.0,10.0,58,0.00,,,1.04,716.000000,,2013-08-06 21:22:00,
2013-08-06 16:52:00,93.0,76.0,-100.00,SW,222,5.0,12.0,58,0.00,,,1.04,713.000000,,2013-08-06 21:52:00,
2013-08-06 17:01:00,93.0,76.0,-100.00,SW,222,5.0,12.0,58,0.00,,,1.04,713.000000,,2013-08-06 22:01:00,
2013-08-06 17:11:00,93.0,76.0,-100.00,SW,222,5.0,12.0,58,0.00,,,1.04,713.000000,,2013-08-06 22:11:00,
2013-08-06 17:22:00,93.0,76.0,-100.00,SW,222,5.0,12.0,58,0.00,,,1.04,713.000000,,2013-08-06 22:22:00,
2013-08-06 17:53:00,92.0,75.0,-100.00,SW,232,6.0,10.0,58,0.00,,,0.01,580.000000,,2013-08-06 22:53:00,
2013-08-06 18:01:00,92.0,75.0,-100.00,SW,232,6.0,10.0,58,0.00,,,0.01,580.000000,,2013-08-06 23:01:00,
2013-08-06 18:11:00,92.0,75.0,-100.00,SW,232,6.0,10.0,58,0.00,,,0.01,580.000000,,2013-08-06 23:11:00,
2013-08-06 18:22:00,92.0,75.0,-100.00,SW,232,6.0,10.0,58,0.00,,,0.01,580.000000,,2013-08-06 23:22:00,
2013-08-06 18:52:00,91.0,75.0,-100.00,West,261,4.0,9.0,60,0.00,,,0.01,317.000000,,2013-08-06 23:52:00,
2013-08-06 19:01:00,91.0,75.0,-100.00,West,261,4.0,9.0,60,0.00,,,0.01,317.000000,,2013-08-07 00:01:00,
2013-08-06 19:11:00,91.0,75.0,-100.00,West,261,4.0,9.0,60,0.00,,,0.01,317.000000,,2013-08-07 00:11:00,
2013-08-06 19:21:00,91.0,75.0,-100.00,West,261,4.0,9.0,60,0.00,,,0.01,317.000000,,2013-08-07 00:21:00,
2013-08-06 19:52:00,88.0,76.0,-100.00,SSW,209,2.0,6.0,68,0.00,,,0.01,135.000000,,2013-08-07 00:52:00,
2013-08-06 20:01:00,88.0,76.0,-100.00,SSW,209,2.0,6.0,68,0.00,,,0.01,135.000000,,2013-08-07 01:01:00,
2013-08-06 20:11:00,88.0,76.0,-100.00,SSW,209,2.0,6.0,68,0.00,,,0.01,135.000000,,2013-08-07 01:11:00,
2013-08-06 20:22:00,88.0,76.0,-100.00,SSW,209,2.0,6.0,68,0.00,,,0.01,135.000000,,2013-08-07 01:22:00,
2013-08-06 20:52:00,83.0,76.0,-100.00,NNE,24,0.0,4.0,80,0.00,,,0.00,14.000000,,2013-08-07 01:52:00,
2013-08-06 21:02:00,83.0,76.0,-100.00,NNE,24,0.0,4.0,80,0.00,,,0.00,14.000000,,2013-08-07 02:02:00,
2013-08-06 21:11:00,83.0,76.0,-100.00,NNE,24,0.0,4.0,80,0.00,,,0.00,14.000000,,2013-08-07 02:11:00,
2013-08-06 21:22:00,83.0,76.0,-100.00,NNE,24,0.0,4.0,80,0.00,,,0.00,14.000000,,2013-08-07 02:22:00,
2013-08-06 21:53:00,81.0,73.0,-100.00,NE,48,5.0,13.0,78,0.00,,,0.00,5.000000,,2013-08-07 02:53:00,
2013-08-06 22:01:00,81.0,73.0,-100.00,NE,48,5.0,13.0,78,0.00,,,0.00,5.000000,,2013-08-07 03:01:00,
2013-08-06 22:11:00,81.0,73.0,-100.00,NE,48,5.0,13.0,78,0.00,,,0.00,5.000000,,2013-08-07 03:11:00,
2013-08-06 22:23:00,81.0,73.0,-100.00,NE,48,5.0,13.0,78,0.00,,,0.00,5.000000,,2013-08-07 03:23:00,
2013-08-06 22:52:00,77.0,72.0,-100.00,NNE,17,2.0,13.0,85,0.01,,,0.01,5.000000,,2013-08-07 03:52:00,
2013-08-06 23:01:00,77.0,72.0,-100.00,NNE,17,2.0,13.0,85,0.01,,,0.01,5.000000,,2013-08-07 04:01:00,
2013-08-06 23:11:00,77.0,72.0,-100.00,NNE,17,2.0,13.0,85,0.01,,,0.01,5.000000,,2013-08-07 04:11:00,
2013-08-06 23:21:00,77.0,72.0,-100.00,NNE,17,2.0,13.0,85,0.01,,,0.01,5.000000,,2013-08-07 04:21:00,
2013-08-06 23:52:00,77.0,74.0,-100.00,SSW,193,2.0,5.0,91,0.02,,,0.03,5.000000,,2013-08-07 04:52:00,